createdAt,value
2023-01-29T00:04:04.279Z,19.93
2023-01-29T00:14:07.470Z,19.93
2023-01-29T00:24:10.738Z,19.93
2023-01-29T00:34:13.948Z,19.93
2023-01-29T00:44:17.124Z,19.91
2023-01-29T00:54:20.314Z,19.90
2023-01-29T01:04:23.468Z,19.91
2023-01-29T01:14:26.666Z,19.91
2023-01-29T01:24:29.922Z,19.88
2023-01-29T01:34:33.141Z,19.90
2023-01-29T01:44:36.290Z,19.88
2023-01-29T01:54:39.490Z,19.90
2023-01-29T02:04:42.664Z,19.87
2023-01-29T02:14:45.860Z,19.87
2023-01-29T02:24:49.003Z,19.88
2023-01-29T02:34:52.218Z,19.87
2023-01-29T02:44:55.390Z,19.86
2023-01-29T02:54:58.604Z,19.84
2023-01-29T03:05:01.773Z,19.86
2023-01-29T03:15:04.957Z,19.83
2023-01-29T03:25:08.135Z,19.84
2023-01-29T03:35:11.321Z,19.83
2023-01-29T03:45:14.481Z,19.83
2023-01-29T03:55:17.636Z,19.80
2023-01-29T04:05:20.811Z,19.80
2023-01-29T04:15:23.983Z,19.80
2023-01-29T04:25:27.175Z,19.80
2023-01-29T04:35:30.349Z,19.79
2023-01-29T04:45:33.520Z,19.79
2023-01-29T04:55:36.693Z,19.78
2023-01-29T05:05:39.856Z,19.79
2023-01-29T05:15:43.149Z,19.78
2023-01-29T05:25:46.336Z,19.76
2023-01-29T05:35:49.492Z,19.75
2023-01-29T05:45:52.669Z,19.76
2023-01-29T05:55:55.831Z,19.73
2023-01-29T06:05:59.001Z,19.75
2023-01-29T06:16:02.207Z,19.75
2023-01-29T06:26:05.394Z,19.73
2023-01-29T06:36:08.616Z,19.73
2023-01-29T06:46:11.791Z,19.73
2023-01-29T06:56:14.989Z,19.72
2023-01-29T07:06:18.142Z,19.72
2023-01-29T07:16:33.914Z,19.72
2023-01-29T07:37:17.240Z,19.70
2023-01-29T07:47:20.441Z,19.69
2023-01-29T07:57:23.612Z,19.70
2023-01-29T08:07:26.788Z,19.70
2023-01-29T08:17:29.959Z,19.69
2023-01-29T08:27:33.388Z,19.69
2023-01-29T08:37:36.547Z,19.68
2023-01-29T08:47:39.714Z,19.68
2023-01-29T08:57:42.891Z,19.70
2023-01-29T09:07:46.050Z,19.68
2023-01-29T09:17:49.213Z,19.66
2023-01-29T09:27:52.442Z,19.68
2023-01-29T09:37:55.634Z,19.68
2023-01-29T09:47:58.809Z,19.69
2023-01-29T09:58:02.004Z,19.68
2023-01-29T10:08:05.168Z,19.69
2023-01-29T10:18:08.358Z,19.66
2023-01-29T10:28:11.522Z,19.69
2023-01-29T10:38:14.696Z,19.68
2023-01-29T10:48:17.865Z,19.69
2023-01-29T10:58:21.035Z,19.68
2023-01-29T11:08:24.208Z,19.68
2023-01-29T11:18:27.417Z,19.66
2023-01-29T11:28:30.592Z,19.66
2023-01-29T11:38:33.765Z,19.68
2023-01-29T11:48:36.941Z,19.66
2023-01-29T11:58:40.106Z,19.66
2023-01-29T12:08:43.272Z,19.66
2023-01-29T12:18:46.442Z,19.66
2023-01-29T12:29:30.564Z,19.66
2023-01-29T12:49:45.598Z,19.66
2023-01-29T12:59:48.790Z,19.68
2023-01-29T13:09:51.977Z,19.68
2023-01-29T13:19:55.238Z,19.66
2023-01-29T13:29:58.436Z,19.68
2023-01-29T13:40:01.633Z,19.68
2023-01-29T13:50:07.540Z,19.68
2023-01-29T14:00:08.321Z,19.68
2023-01-29T14:10:13.806Z,19.65
2023-01-29T14:20:14.641Z,19.66
2023-01-29T14:30:17.813Z,19.66
2023-01-29T14:40:20.981Z,19.66
2023-01-29T14:50:24.157Z,19.66
2023-01-29T15:00:27.328Z,19.66
2023-01-29T15:10:30.545Z,19.68
2023-01-29T15:20:33.782Z,19.66
2023-01-29T15:30:37.032Z,19.63
2023-01-29T15:40:40.208Z,19.65
2023-01-29T15:50:43.373Z,19.65
2023-01-29T16:00:46.577Z,19.63
2023-01-29T16:10:51.647Z,19.65
2023-01-29T16:20:52.321Z,19.63
2023-01-29T16:30:55.644Z,19.63
2023-01-29T16:40:58.927Z,19.61
2023-01-29T16:51:02.094Z,19.61
2023-01-29T17:01:05.347Z,19.61
2023-01-29T17:11:08.527Z,19.61
2023-01-29T17:21:11.702Z,19.61
2023-01-29T17:31:14.966Z,19.61
2023-01-29T17:41:18.171Z,19.61
2023-01-29T17:51:23.446Z,19.60
2023-01-29T18:01:25.640Z,19.60
2023-01-29T18:11:28.914Z,19.60
2023-01-29T18:21:32.078Z,19.58
2023-01-29T18:31:35.305Z,19.61
2023-01-29T18:41:38.526Z,19.60
2023-01-29T18:51:41.680Z,19.60
2023-01-29T19:01:44.844Z,19.60
2023-01-29T19:11:48.025Z,19.60
2023-01-29T19:21:51.230Z,19.58
2023-01-29T19:31:55.072Z,19.58
2023-01-29T19:41:58.231Z,19.58
2023-01-29T19:52:01.429Z,19.57
2023-01-29T20:02:04.761Z,19.58
2023-01-29T20:12:07.978Z,19.58
2023-01-29T20:22:11.160Z,19.57
2023-01-29T20:32:14.352Z,19.57
2023-01-29T20:42:17.517Z,19.57
2023-01-29T20:52:20.685Z,19.55
2023-01-29T21:02:24.160Z,19.57
2023-01-29T21:12:27.381Z,19.57
2023-01-29T21:22:30.545Z,19.57
2023-01-29T21:32:33.756Z,19.57
2023-01-29T21:42:36.930Z,19.55
2023-01-29T21:52:40.099Z,19.57
2023-01-29T22:02:43.347Z,19.55
2023-01-29T22:12:46.551Z,19.57
2023-01-29T22:22:49.744Z,19.55
2023-01-29T22:32:52.901Z,19.57
2023-01-29T22:42:56.062Z,19.54
2023-01-29T22:52:59.258Z,19.55
2023-01-29T23:03:02.418Z,19.54
2023-01-29T23:13:05.591Z,19.55
2023-01-29T23:23:08.827Z,19.54
2023-01-29T23:33:12.322Z,19.55
2023-01-29T23:43:15.533Z,19.55
2023-01-29T23:53:18.712Z,19.55
